Aviation Digital Data Service (ADDS)

Output produced by METARs form (0826 UTC 26 October 2014)
found at http://www.aviationweather.gov/adds/metars/
 
KMDT 260756Z 31016KT 10SM FEW080 15/02 A2965 RMK AO2 PK WND 33028/0730 SLP040 T01500022 $
KMDT 260656Z 32017KT 10SM FEW080 17/03 A2964 RMK AO2 SLP036 T01670028 $
KMDT 260556Z 31006KT 10SM BKN060 16/09 A2962 RMK AO2 SLP028 60000 T01560089 10189 20156 58005 $
KMDT 260456Z 29004KT 10SM OVC065 17/09 A2962 RMK AO2 RAE0359 SLP030 P0000 T01670094 402060050 $
KMDT 260356Z 26006KT 10SM -RA OVC045 16/11 A2964 RMK AO2 RAB33 SLP036 PCPN VRY LGT P0000 T01610106 $
KMDT 260256Z 21008KT 10SM SCT035 SCT080 16/09 A2963 RMK AO2 SLP033 T01610089 56016 $
KMDT 260156Z 23012KT 10SM FEW060 17/09 A2964 RMK AO2 SLP038 T01670089 $
KMDT 260056Z 25011G17KT 10SM CLR 18/09 A2966 RMK AO2 SLP046 T01830089
KMDT 252356Z 26010KT 10SM FEW060 19/08 A2968 RMK AO2 SLP050 T01890078 10206 20178 55005
KMDT 252256Z 23010KT 10SM FEW060 18/08 A2967 RMK AO2 SLP048 T01830078
KMDT 252156Z 24009KT 10SM BKN065 20/07 A2967 RMK AO2 SLP049 T02000072
KMDT 252056Z 21005KT 10SM BKN070 21/08 A2969 RMK AO2 SLP055 T02060078 56034
KMDT 251956Z 22009KT 10SM FEW070 21/07 A2972 RMK AO2 SLP064 T02060072
KMDT 251856Z 25007KT 10SM FEW050 FEW090 20/07 A2975 RMK AO2 SLP075 T02000067
KMDT 251756Z 29011KT 10SM FEW050 FEW250 19/06 A2979 RMK AO2 SLP089 T01890061 10189 20061 57032
KMDT 251656Z 28011KT 10SM FEW080 FEW250 18/06 A2982 RMK AO2 SLP099 T01830061
KMDT 251556Z 30008KT 10SM FEW040 SCT250 18/07 A2986 RMK AO2 SLP111 T01830067
KMDT 251456Z 29004KT 10SM SCT250 15/06 A2989 RMK AO2 SLP122 T01500061 58011
KMDT 251356Z 00000KT 10SM SCT250 12/07 A2992 RMK AO2 SLP131 T01220067
KMDT 251256Z 00000KT 10SM FEW200 10/07 A2993 RMK AO2 SLP136 T01000067
KMDT 251156Z 00000KT 10SM CLR 06/04 A2992 RMK AO2 SLP134 T00610044 10106 20050 50000
KMDT 251056Z 00000KT 10SM FEW040 07/04 A2992 RMK AO2 SLP134 T00670044
KMDT 250956Z 00000KT 10SM CLR 06/04 A2992 RMK AO2 SLP133 T00610039
KMDT 250856Z 00000KT 10SM CLR 07/04 A2992 RMK AO2 SLP132 T00670039 58003
KMDT 250756Z 00000KT 10SM CLR 08/04 A2992 RMK AO2 SLP134 T00780039
KMDT 250656Z 01003KT 10SM CLR 09/04 A2993 RMK AO2 SLP135 T00890039
KMDT 250556Z 34003KT 10SM CLR 10/03 A2993 RMK AO2 SLP136 T01000033 10139 20100 50001
KMDT 250456Z 33008KT 10SM FEW220 11/04 A2993 RMK AO2 SLP136 T01060039 401890100
KMDT 250356Z 32008KT 10SM SCT220 12/04 A2993 RMK AO2 SLP136 T01170039
KMDT 250256Z 31008KT 10SM BKN220 12/04 A2993 RMK AO2 SLP135 T01220039 51010
KMDT 250156Z 31011KT 10SM BKN220 13/04 A2992 RMK AO2 SLP132 T01330044
KMDT 250056Z 30010KT 10SM BKN220 13/04 A2991 RMK AO2 SLP128 T01330039
KMDT 242356Z 30009KT 10SM BKN220 14/04 A2990 RMK AO2 SLP124 T01390039 10189 20133 53011
KMDT 242256Z 30007KT 10SM BKN220 14/04 A2988 RMK AO2 SLP119 T01440044
KMDT 242156Z 31009KT 10SM BKN220 16/03 A2987 RMK AO2 SLP115 T01610033
KMDT 242056Z 29011KT 10SM BKN250 18/04 A2986 RMK AO2 SLP112 T01780039 55006